Time;durP1;ratioP1;P1;durP2;ratioP2;P2;SDS_P1;SDS_P2;PMS_P1;PMS_P2;Temp;Humidity;BMP_temperature;BMP_pressure;BME280_temperature;BME280_humidity;BME280_pressure;Samples;Min_cycle;Max_cycle;Signal;HPM_P1;HPM_P2
2023/02/28 00:00:30;;;;;;;3.67;3.10;;;;;;;2.12;100.00;100646.39;1792528;79;21244;-84
2023/02/28 00:03:37;;;;;;;4.47;2.98;;;;;;;2.16;100.00;100640.25;1791382;77;21230;-84
2023/02/28 00:06:42;;;;;;;4.50;3.02;;;;;;;2.14;100.00;100657.92;1797727;79;21217;-84
2023/02/28 00:09:48;;;;;;;4.62;3.65;;;;;;;2.06;100.00;100656.27;1801924;79;21221;-85
2023/02/28 00:12:58;;;;;;;4.85;4.17;;;;;;;2.04;100.00;100649.64;1795360;79;21419;-83
2023/02/28 00:16:10;;;;;;;;;;;;;;;2.07;100.00;100632.84;1794679;79;21810;-83
2023/02/28 00:19:15;;;;;;;5.37;4.72;;;;;;;2.07;100.00;100643.63;1795622;79;20716;-84
2023/02/28 00:22:23;;;;;;;8.05;5.08;;;;;;;2.04;100.00;100652.34;1799200;79;21766;-84
2023/02/28 00:25:31;;;;;;;8.60;6.15;;;;;;;1.95;100.00;100662.95;1792880;77;21242;-83
2023/02/28 00:28:37;;;;;;;8.65;5.58;;;;;;;2.00;100.00;100678.31;1794544;79;21213;-85
2023/02/28 00:31:42;;;;;;;8.45;6.42;;;;;;;2.02;100.00;100681.75;1800968;79;21240;-84
2023/02/28 00:34:48;;;;;;;10.00;6.58;;;;;;;2.04;100.00;100693.31;1792165;79;21200;-83
2023/02/28 00:37:56;;;;;;;9.78;7.90;;;;;;;2.08;100.00;100704.75;1802665;79;21189;-84
2023/02/28 00:41:04;;;;;;;10.28;8.35;;;;;;;2.08;100.00;100711.00;1791531;79;21243;-84
2023/02/28 00:44:10;;;;;;;10.85;8.75;;;;;;;2.13;100.00;100726.38;1764679;79;21205;-85
2023/02/28 00:47:16;;;;;;;12.58;9.68;;;;;;;2.14;100.00;100724.04;1798207;79;21833;-85
2023/02/28 00:50:29;;;;;;;12.13;9.60;;;;;;;2.17;100.00;100724.31;1799903;79;21247;-84
2023/02/28 00:53:35;;;;;;;17.27;11.15;;;;;;;2.18;100.00;100724.19;1797471;79;21224;-84
2023/02/28 00:56:41;;;;;;;19.00;12.37;;;;;;;2.18;100.00;100726.89;1792663;79;21469;-83
2023/02/28 00:59:48;;;;;;;18.85;12.85;;;;;;;2.18;100.00;100721.49;1793314;79;21247;-84
2023/02/28 01:02:54;;;;;;;24.57;13.65;;;;;;;2.17;100.00;100710.33;1797873;79;21196;-83
2023/02/28 01:05:59;;;;;;;23.35;15.03;;;;;;;2.12;100.00;100708.92;1796892;79;21536;-84
2023/02/28 01:09:06;;;;;;;28.52;16.77;;;;;;;2.14;100.00;100719.13;1758567;80;21241;-83
2023/02/28 01:12:12;;;;;;;26.25;17.77;;;;;;;2.03;100.00;100713.18;1731402;82;21256;-85
2023/02/28 01:15:19;;;;;;;32.78;19.23;;;;;;;1.96;100.00;100713.23;1737089;82;21210;-84
2023/02/28 01:18:26;;;;;;;25.65;18.42;;;;;;;1.98;100.00;100720.26;1734331;81;21229;-83
2023/02/28 01:21:32;;;;;;;27.77;18.95;;;;;;;1.95;100.00;100725.87;1736254;82;21228;-84
2023/02/28 01:24:39;;;;;;;29.92;19.27;;;;;;;1.89;100.00;100709.27;1735469;80;21197;-84
2023/02/28 01:27:47;;;;;;;33.73;21.48;;;;;;;1.89;100.00;100706.09;1802639;79;21177;-84
2023/02/28 01:30:57;;;;;;;29.77;19.85;;;;;;;1.91;100.00;100715.41;1759218;81;21304;-84
2023/02/28 01:34:02;;;;;;;36.08;22.22;;;;;;;1.91;100.00;100720.80;1731694;82;21178;-83
2023/02/28 01:37:08;;;;;;;32.08;20.75;;;;;;;1.90;100.00;100726.69;1751616;82;21217;-84
2023/02/28 01:40:14;;;;;;;35.20;22.20;;;;;;;1.89;100.00;100718.72;1732934;82;21225;-84
2023/02/28 01:43:32;;;;;;;41.92;25.60;;;;;;;1.90;100.00;100716.39;1732354;81;21816;-84
2023/02/28 01:46:38;;;;;;;41.53;23.85;;;;;;;1.92;100.00;100728.77;1759028;81;21247;-84
2023/02/28 01:49:45;;;;;;;38.67;24.80;;;;;;;1.94;100.00;100725.98;1756173;81;21958;-84
2023/02/28 01:52:53;;;;;;;38.40;23.70;;;;;;;1.84;100.00;100730.33;1755632;81;21851;-83
2023/02/28 01:56:00;;;;;;;38.50;24.57;;;;;;;1.88;100.00;100721.87;1757781;81;21245;-84
2023/02/28 01:59:05;;;;;;;39.78;26.15;;;;;;;1.86;100.00;100720.27;1754046;81;21259;-84
2023/02/28 02:02:11;;;;;;;41.00;27.05;;;;;;;1.83;100.00;100727.23;1752396;81;21205;-85
2023/02/28 02:05:23;;;;;;;41.73;26.52;;;;;;;1.76;100.00;100723.63;1756629;81;21886;-84
2023/02/28 02:08:33;;;;;;;49.85;30.35;;;;;;;1.70;100.00;100721.87;1757812;81;21217;-84
2023/02/28 02:11:39;;;;;;;46.50;29.42;;;;;;;1.72;100.00;100723.96;1792309;79;21763;-86
2023/02/28 02:14:58;;;;;;;48.00;28.83;;;;;;;1.70;100.00;100736.22;1791735;79;21754;-84
2023/02/28 02:18:07;;;;;;;48.28;30.32;;;;;;;1.73;100.00;100741.86;1798035;79;21168;-84
2023/02/28 02:21:42;;;;;;;46.18;28.55;;;;;;;1.67;100.00;100754.44;1797590;79;21174;-84
2023/02/28 02:25:04;;;;;;;47.43;30.12;;;;;;;1.66;100.00;100779.69;1796571;79;21790;-84
2023/02/28 02:28:44;;;;;;;47.70;31.30;;;;;;;1.68;100.00;100801.52;1803400;79;21327;-84
2023/02/28 02:32:06;;;;;;;44.65;30.43;;;;;;;1.64;100.00;100807.23;1789218;77;21894;-84
2023/02/28 02:35:36;;;;;;;51.60;31.80;;;;;;;1.61;100.00;100815.55;1806510;79;21182;-85
2023/02/28 02:39:03;;;;;;;63.42;35.63;;;;;;;1.64;100.00;100835.55;1803046;79;21862;-85
2023/02/28 02:42:11;;;;;;;54.85;32.40;;;;;;;1.75;100.00;100832.98;1793272;79;22212;-85
2023/02/28 02:45:35;;;;;;;53.78;33.53;;;;;;;1.70;100.00;100845.93;1790272;79;21180;-84
2023/02/28 02:48:41;;;;;;;50.15;32.20;;;;;;;1.81;100.00;100833.03;1796753;79;21237;-83
2023/02/28 02:51:47;;;;;;;53.42;32.13;;;;;;;1.79;100.00;100843.45;1802131;79;21208;-84
2023/02/28 02:54:55;;;;;;;53.58;31.27;;;;;;;1.76;100.00;100861.67;1792634;79;21188;-85
2023/02/28 02:58:06;;;;;;;51.05;32.40;;;;;;;1.74;100.00;100859.09;1793560;79;21857;-85
2023/02/28 03:01:12;;;;;;;51.55;31.12;;;;;;;1.79;100.00;100870.43;1801847;79;21807;-84
2023/02/28 03:04:26;;;;;;;49.45;32.03;;;;;;;1.77;100.00;100873.70;1792832;79;21224;-83
2023/02/28 03:07:31;;;;;;;53.48;31.35;;;;;;;1.66;100.00;100877.63;1756568;80;21846;-84
2023/02/28 03:10:49;;;;;;;47.35;28.83;;;;;;;1.57;100.00;100889.53;1747082;80;21775;-84
2023/02/28 03:14:28;;;;;;;41.15;25.05;;;;;;;1.55;100.00;100897.70;1773616;79;21188;-85
2023/02/28 03:17:56;;;;;;;38.73;25.68;;;;;;;1.48;100.00;100900.45;1735101;81;21221;-85
2023/02/28 03:21:28;;;;;;;41.83;26.15;;;;;;;1.45;100.00;100892.08;1737532;79;21848;-84
2023/02/28 03:25:07;;;;;;;38.98;25.32;;;;;;;1.49;100.00;100895.44;1807119;79;21213;-84
2023/02/28 03:28:39;;;;;;;35.28;24.60;;;;;;;1.40;100.00;100893.36;1758562;80;21174;-84
2023/02/28 03:31:51;;;;;;;32.55;21.82;;;;;;;1.36;100.00;100896.73;1796248;79;21266;-84
2023/02/28 03:35:12;;;;;;;30.05;20.92;;;;;;;1.36;100.00;100899.92;1790540;79;21177;-84
2023/02/28 03:38:32;;;;;;;31.37;20.82;;;;;;;1.32;100.00;100888.96;1783998;78;21199;-84
2023/02/28 03:41:47;;;;;;;36.38;23.22;;;;;;;1.31;100.00;100883.20;1782101;79;21235;-84
2023/02/28 03:45:02;;;;;;;37.95;24.23;;;;;;;1.28;100.00;100884.28;1799789;79;21187;-84
2023/02/28 03:48:35;;;;;;;31.50;21.33;;;;;;;1.27;100.00;100875.80;1802185;79;21198;-83
2023/02/28 03:51:40;;;;;;;34.13;21.85;;;;;;;1.29;100.00;100872.53;1794285;79;21759;-84
2023/02/28 03:54:52;;;;;;;31.90;23.25;;;;;;;1.28;100.00;100884.28;1789756;79;21270;-83
2023/02/28 03:58:29;;;;;;;33.58;22.02;;;;;;;1.24;100.00;100882.27;1795538;79;21187;-84
2023/02/28 04:01:47;;;;;;;31.77;21.50;;;;;;;1.24;100.00;100887.66;1794962;79;21246;-84
2023/02/28 04:04:53;;;;;;;38.70;22.98;;;;;;;1.23;100.00;100890.47;1805408;78;21244;-85
2023/02/28 04:07:59;;;;;;;30.75;19.52;;;;;;;1.21;100.00;100900.47;1757638;80;21830;-84
2023/02/28 04:11:12;;;;;;;31.55;21.73;;;;;;;1.20;100.00;100914.43;1728527;82;21724;-85
2023/02/28 04:14:19;;;;;;;33.40;21.52;;;;;;;1.19;100.00;100912.70;1751850;82;21233;-85
2023/02/28 04:17:18;;;;;;;38.65;23.30;;;;;;;1.19;100.00;100926.67;1738988;82;21232;-84
2023/02/28 04:20:24;;;;;;;34.18;21.80;;;;;;;1.16;100.00;100935.80;1802561;79;21200;-85
2023/02/28 04:23:30;;;;;;;34.80;22.55;;;;;;;1.11;100.00;100934.38;1798624;79;21216;-85
2023/02/28 04:26:43;;;;;;;33.05;21.27;;;;;;;1.08;100.00;100928.70;1803181;79;21177;-84
2023/02/28 04:29:50;;;;;;;38.20;24.02;;;;;;;1.06;100.00;100936.03;1788936;79;21279;-83
2023/02/28 04:32:56;;;;;;;36.80;23.55;;;;;;;1.05;100.00;100930.27;1759093;80;21200;-83
2023/02/28 04:36:10;;;;;;;32.73;22.25;;;;;;;1.01;100.00;100944.41;1731226;82;21228;-83
2023/02/28 04:39:18;;;;;;;33.25;23.67;;;;;;;1.00;100.00;100940.48;1752909;80;21205;-84
2023/02/28 04:42:24;;;;;;;36.48;24.80;;;;;;;0.96;100.00;100943.85;1737252;81;21193;-84
2023/02/28 04:45:31;;;;;;;35.38;24.25;;;;;;;0.96;100.00;100964.05;1769558;80;21787;-83
2023/02/28 04:48:38;;;;;;;36.17;24.87;;;;;;;0.96;100.00;100958.67;1798503;79;21778;-83
2023/02/28 04:51:45;;;;;;;39.10;23.83;;;;;;;0.95;100.00;100974.45;1759378;80;21276;-84
2023/02/28 04:54:51;;;;;;;39.80;25.85;;;;;;;0.94;100.00;100962.41;1726977;82;21774;-84
2023/02/28 04:57:58;;;;;;;38.35;25.65;;;;;;;0.94;100.00;100953.88;1798344;79;21260;-84
2023/02/28 05:01:15;;;;;;;37.15;24.80;;;;;;;0.90;100.00;100948.30;1794878;79;21204;-84
2023/02/28 05:04:20;;;;;;;34.90;24.05;;;;;;;0.88;100.00;100952.04;1737820;80;21272;-84
2023/02/28 05:07:26;;;;;;;35.50;23.98;;;;;;;0.89;100.00;100961.84;1732670;82;21778;-84
2023/02/28 05:10:32;;;;;;;38.85;25.37;;;;;;;0.89;100.00;100960.49;1797046;79;21212;-84
2023/02/28 05:13:38;;;;;;;43.08;27.75;;;;;;;0.92;100.00;100958.48;1762918;80;21209;-84
2023/02/28 05:16:45;;;;;;;38.98;25.30;;;;;;;0.94;100.00;100946.25;1731953;82;21221;-84
2023/02/28 05:19:52;;;;;;;38.42;27.27;;;;;;;0.93;100.00;100959.34;1795452;79;21217;-85
2023/02/28 05:23:00;;;;;;;41.95;27.82;;;;;;;0.95;100.00;100966.86;1764086;80;21812;-85
2023/02/28 05:26:06;;;;;;;39.83;27.42;;;;;;;0.97;100.00;100972.52;1801973;79;21735;-84
2023/02/28 05:29:11;;;;;;;42.25;26.40;;;;;;;1.00;100.00;100986.28;1797617;79;21212;-84
2023/02/28 05:32:18;;;;;;;38.88;25.35;;;;;;;1.00;100.00;100991.19;1804326;79;21220;-84
2023/02/28 05:35:24;;;;;;;37.40;24.37;;;;;;;0.99;100.00;100990.80;1797018;79;21252;-83
2023/02/28 05:38:31;;;;;;;42.17;26.40;;;;;;;1.01;100.00;100995.59;1798313;79;21154;-83
2023/02/28 05:41:37;;;;;;;40.00;25.75;;;;;;;1.02;100.00;100990.59;1796631;79;21204;-83
2023/02/28 05:44:43;;;;;;;36.68;25.20;;;;;;;1.01;100.00;100985.31;1792350;77;21232;-84
2023/02/28 05:47:49;;;;;;;36.88;24.25;;;;;;;1.00;100.00;100993.88;1787463;79;21504;-84
2023/02/28 05:50:55;;;;;;;35.78;24.87;;;;;;;1.01;100.00;101008.21;1774616;81;21240;-83
2023/02/28 05:54:07;;;;;;;36.35;24.63;;;;;;;0.99;100.00;101010.15;1728928;82;21220;-83
2023/02/28 05:57:12;;;;;;;35.77;23.50;;;;;;;0.97;100.00;101005.33;1792377;79;21288;-84
2023/02/28 06:00:20;;;;;;;32.58;20.50;;;;;;;0.98;100.00;101011.95;1790887;78;21173;-84
2023/02/28 06:03:26;;;;;;;28.25;19.32;;;;;;;1.00;100.00;101015.91;1783516;78;21184;-84
2023/02/28 06:06:33;;;;;;;29.65;19.80;;;;;;;1.02;100.00;101012.63;1793958;78;21184;-83
2023/02/28 06:09:39;;;;;;;28.12;19.60;;;;;;;1.00;100.00;101018.61;1776136;79;21189;-84
2023/02/28 06:12:46;;;;;;;32.67;20.50;;;;;;;1.00;100.00;101013.22;1754887;80;21204;-84
2023/02/28 06:15:52;;;;;;;31.95;21.05;;;;;;;1.00;100.00;101022.16;1711779;81;21794;-84
2023/02/28 06:18:58;;;;;;;30.37;20.65;;;;;;;1.04;100.00;101024.19;1726237;81;21169;-84
2023/02/28 06:22:03;;;;;;;29.98;20.30;;;;;;;1.08;100.00;101023.00;1718377;82;21850;-84
2023/02/28 06:25:10;;;;;;;26.23;17.52;;;;;;;1.14;100.00;101034.76;1725639;82;21702;-86
2023/02/28 06:28:17;;;;;;;26.70;19.10;;;;;;;1.17;100.00;101038.58;1715317;82;21286;-86
2023/02/28 06:31:25;;;;;;;29.05;19.98;;;;;;;1.22;100.00;101045.02;1725467;81;21244;-86
2023/02/28 06:34:33;;;;;;;29.42;20.70;;;;;;;1.27;100.00;101044.24;1726195;82;21276;-85
2023/02/28 06:37:40;;;;;;;28.60;19.42;;;;;;;1.35;100.00;101062.14;1771664;79;21185;-84
2023/02/28 06:40:46;;;;;;;27.62;17.92;;;;;;;1.39;100.00;101063.68;1774810;79;21217;-83
2023/02/28 06:43:52;;;;;;;23.27;16.65;;;;;;;1.45;100.00;101070.50;1786499;78;21118;-84
2023/02/28 06:46:58;;;;;;;25.88;18.65;;;;;;;1.50;100.00;101069.72;1773787;79;21200;-84
2023/02/28 06:50:04;;;;;;;25.32;17.50;;;;;;;1.49;100.00;101066.16;1785801;79;21169;-84
2023/02/28 06:53:10;;;;;;;23.67;17.67;;;;;;;1.53;100.00;101058.74;1776272;79;21272;-84
2023/02/28 06:56:20;;;;;;;19.48;14.47;;;;;;;1.57;100.00;101061.63;1772147;79;22100;-84
2023/02/28 06:59:25;;;;;;;28.62;16.32;;;;;;;1.59;100.00;101067.77;1787467;79;21681;-84
2023/02/28 07:02:32;;;;;;;21.65;14.68;;;;;;;1.65;100.00;101071.44;1777091;79;21216;-85
2023/02/28 07:05:37;;;;;;;20.32;13.32;;;;;;;1.71;100.00;101064.77;1796860;78;21207;-85
2023/02/28 07:08:42;;;;;;;19.55;13.88;;;;;;;1.78;100.00;101058.84;1793836;79;21173;-83
2023/02/28 07:11:49;;;;;;;19.87;15.15;;;;;;;1.86;100.00;101058.34;1779027;79;21286;-84
2023/02/28 07:14:55;;;;;;;19.77;14.78;;;;;;;1.94;100.00;101057.36;1789971;79;21303;-85
2023/02/28 07:18:01;;;;;;;19.55;15.48;;;;;;;2.04;100.00;101051.72;1801189;79;21181;-85
2023/02/28 07:21:14;;;;;;;19.52;14.03;;;;;;;2.09;100.00;101043.31;1790522;79;21201;-83
2023/02/28 07:24:20;;;;;;;19.32;14.00;;;;;;;2.14;100.00;101042.52;1797145;79;21866;-84
2023/02/28 07:27:25;;;;;;;18.95;12.98;;;;;;;2.16;100.00;101044.60;1765993;80;21271;-84
2023/02/28 07:30:30;;;;;;;20.45;14.10;;;;;;;2.16;100.00;101061.29;1739532;81;21216;-83
2023/02/28 07:33:36;;;;;;;17.80;13.32;;;;;;;2.15;100.00;101045.58;1792149;79;21196;-84
2023/02/28 07:36:42;;;;;;;18.37;13.15;;;;;;;2.18;100.00;101049.92;1762860;81;21149;-83
2023/02/28 07:39:48;;;;;;;20.57;14.23;;;;;;;2.11;99.93;101052.16;1759067;79;21245;-83
2023/02/28 07:42:54;;;;;;;17.75;12.93;;;;;;;1.95;99.61;101053.68;1728780;81;21216;-83
2023/02/28 07:45:59;;;;;;;17.92;12.07;;;;;;;1.87;99.86;101061.42;1748416;80;21217;-84
2023/02/28 07:49:04;;;;;;;19.48;13.25;;;;;;;1.91;100.00;101071.53;1760351;80;21175;-83
2023/02/28 07:52:12;;;;;;;25.65;13.80;;;;;;;1.96;100.00;101072.95;1747395;81;21733;-83
2023/02/28 07:55:18;;;;;;;19.85;12.85;;;;;;;1.96;100.00;101073.44;1749198;80;21215;-84
2023/02/28 07:58:24;;;;;;;20.45;13.78;;;;;;;2.08;100.00;101070.41;1714989;82;21191;-85
2023/02/28 08:01:29;;;;;;;19.17;13.05;;;;;;;2.32;100.00;101063.83;1726283;80;21201;-84
2023/02/28 08:04:35;;;;;;;18.17;13.03;;;;;;;2.41;99.63;101063.20;1756871;80;21223;-84
2023/02/28 08:07:41;;;;;;;16.30;11.38;;;;;;;2.43;97.66;101070.69;1759374;80;21248;-83
2023/02/28 08:10:48;;;;;;;16.30;11.63;;;;;;;2.41;96.80;101071.30;1761015;81;21201;-86
2023/02/28 08:13:55;;;;;;;17.55;13.32;;;;;;;2.47;96.98;101059.58;1763642;81;21189;-84
2023/02/28 08:17:01;;;;;;;17.80;12.70;;;;;;;2.52;97.25;101059.26;1715303;82;21216;-84
2023/02/28 08:20:06;;;;;;;21.35;12.10;;;;;;;2.49;96.07;101063.51;1740456;81;21193;-85
2023/02/28 08:23:12;;;;;;;18.92;12.82;;;;;;;2.42;95.73;101068.97;1798336;79;21117;-84
2023/02/28 08:26:18;;;;;;;16.30;12.15;;;;;;;2.43;95.73;101072.91;1791370;79;21208;-85
2023/02/28 08:29:24;;;;;;;15.98;11.55;;;;;;;2.45;94.57;101074.17;1795085;79;21193;-83
2023/02/28 08:32:30;;;;;;;16.05;11.88;;;;;;;2.47;93.89;101081.17;1798732;79;21181;-84
2023/02/28 08:35:37;;;;;;;16.70;11.50;;;;;;;2.49;93.82;101078.36;1789213;79;21235;-84
2023/02/28 08:38:43;;;;;;;20.68;14.47;;;;;;;2.48;93.88;101080.69;1747956;81;21219;-83
2023/02/28 08:41:50;;;;;;;17.00;12.23;;;;;;;2.44;94.35;101081.87;1721565;82;21192;-84
2023/02/28 08:44:58;;;;;;;15.35;11.68;;;;;;;2.45;93.94;101095.77;1716415;81;21286;-83
2023/02/28 08:48:04;;;;;;;16.55;11.35;;;;;;;2.52;93.85;101101.98;1738632;79;21478;-85
2023/02/28 08:51:16;;;;;;;17.42;12.50;;;;;;;2.64;93.91;101107.03;1724173;80;21244;-85
2023/02/28 08:54:21;;;;;;;15.35;10.55;;;;;;;2.71;92.76;101096.16;1791696;79;21232;-83
2023/02/28 08:57:27;;;;;;;15.95;12.53;;;;;;;2.71;90.97;101096.16;1761510;80;21248;-84
2023/02/28 09:00:32;;;;;;;18.92;13.15;;;;;;;2.64;90.22;101100.28;1723325;81;21284;-84
2023/02/28 09:03:44;;;;;;;20.05;14.55;;;;;;;2.56;89.93;101102.64;1725321;82;21189;-84
2023/02/28 09:06:49;;;;;;;21.35;14.15;;;;;;;2.59;91.07;101109.19;1726943;82;22074;-83
2023/02/28 09:09:54;;;;;;;21.12;15.08;;;;;;;2.60;91.24;101107.35;1772384;80;21188;-85
2023/02/28 09:13:00;;;;;;;18.30;13.58;;;;;;;2.42;90.63;101117.58;1806049;79;21137;-84
2023/02/28 09:16:07;;;;;;;15.93;12.13;;;;;;;2.22;91.48;101118.44;1793300;78;21504;-84
2023/02/28 09:19:13;;;;;;;17.25;12.75;;;;;;;2.11;92.55;101107.97;1794924;79;21203;-84
2023/02/28 09:22:19;;;;;;;19.37;14.45;;;;;;;2.03;92.19;101117.45;1803232;79;21233;-84
2023/02/28 09:25:25;;;;;;;20.72;14.23;;;;;;;1.99;92.97;101121.81;1786898;79;21303;-84
2023/02/28 09:28:24;;;;;;;15.08;12.03;;;;;;;2.04;93.04;101129.11;1790295;79;21891;-84
2023/02/28 09:31:33;;;;;;;19.37;12.98;;;;;;;2.17;93.25;101124.64;1795829;79;22011;-84
2023/02/28 09:34:41;;;;;;;22.30;16.48;;;;;;;2.29;92.65;101124.28;1752768;80;21290;-83
2023/02/28 09:37:47;;;;;;;30.43;20.70;;;;;;;2.34;91.29;101128.02;1745966;80;21213;-84
2023/02/28 09:41:12;;;;;;;30.92;20.55;;;;;;;2.42;91.87;101125.67;1729976;82;21201;-84
2023/02/28 09:44:20;;;;;;;35.13;22.90;;;;;;;2.44;90.99;101123.72;1717620;82;21217;-84
2023/02/28 09:47:46;;;;;;;31.48;21.85;;;;;;;2.42;91.18;101120.27;1719593;82;21196;-85
2023/02/28 09:51:13;;;;;;;25.25;18.12;;;;;;;2.43;91.53;101132.80;1746570;80;21779;-84
2023/02/28 09:54:24;;;;;;;34.43;22.82;;;;;;;2.45;90.92;101130.88;1731601;81;21198;-84
2023/02/28 09:57:43;;;;;;;40.60;26.50;;;;;;;2.49;89.31;101125.63;1730582;81;21334;-83
2023/02/28 10:00:51;;;;;;;;;;;;;;;2.56;88.77;101132.34;1761759;80;21231;-84
2023/02/28 10:04:25;;;;;;;72.32;38.15;;;;;;;2.60;88.15;101129.83;1714081;82;20213;-85
2023/02/28 10:08:01;;;;;;;91.72;43.75;;;;;;;2.64;89.82;101120.55;1714023;82;21188;-85
2023/02/28 10:11:08;;;;;;;62.08;36.85;;;;;;;2.58;88.96;101125.48;1725801;82;21249;-84
2023/02/28 10:14:33;;;;;;;65.70;37.00;;;;;;;2.47;89.15;101118.13;1718309;82;21482;-85
2023/02/28 10:17:46;;;;;;;70.70;39.42;;;;;;;2.43;88.82;101108.01;1731823;81;21257;-85
2023/02/28 10:20:54;;;;;;;71.10;37.80;;;;;;;2.36;88.49;101119.35;1716924;81;21194;-84
2023/02/28 10:24:00;;;;;;;67.85;39.78;;;;;;;2.27;88.30;101116.78;1715888;82;21205;-84
2023/02/28 10:27:26;;;;;;;71.67;40.05;;;;;;;2.23;88.76;101112.06;1727393;82;22530;-84
2023/02/28 10:30:31;;;;;;;87.70;44.18;;;;;;;2.23;89.24;101116.61;1735837;80;21221;-85
2023/02/28 10:33:40;;;;;;;76.67;41.73;;;;;;;2.23;88.86;101101.27;1785088;79;21183;-86
2023/02/28 10:36:46;;;;;;;86.37;45.05;;;;;;;2.23;88.75;101106.67;1788003;79;21368;-84
2023/02/28 10:39:53;;;;;;;76.05;41.20;;;;;;;2.22;88.68;101097.34;1779343;79;21870;-84
2023/02/28 10:43:22;;;;;;;71.22;36.38;;;;;;;2.24;88.00;101098.94;1788417;78;21235;-84
2023/02/28 10:46:28;;;;;;;61.28;32.15;;;;;;;2.25;88.37;101098.45;1779340;79;21177;-84
2023/02/28 10:49:34;;;;;;;61.15;31.90;;;;;;;2.24;88.16;101079.19;1770692;79;21191;-84
2023/02/28 10:52:46;;;;;;;51.28;28.32;;;;;;;2.18;87.53;101088.57;1806930;78;21237;-83
2023/02/28 10:55:53;;;;;;;57.85;32.15;;;;;;;2.16;88.01;101085.09;1791648;79;21751;-85
2023/02/28 10:59:37;;;;;;;45.83;28.45;;;;;;;2.16;88.22;101079.69;1772354;79;21276;-84
2023/02/28 11:02:44;;;;;;;32.20;21.00;;;;;;;2.26;88.48;101072.73;1682872;79;21268;-84
2023/02/28 11:05:49;;;;;;;26.10;18.15;;;;;;;2.32;88.51;101064.69;1794458;78;22129;-83
2023/02/28 11:09:00;;;;;;;24.82;18.07;;;;;;;2.34;86.73;101056.47;1785203;79;21292;-84
2023/02/28 11:12:07;;;;;;;23.95;16.60;;;;;;;2.32;86.06;101061.13;1790436;79;21192;-84
2023/02/28 11:15:30;;;;;;;28.77;18.98;;;;;;;2.28;86.05;101064.03;1778340;79;21173;-85
2023/02/28 11:19:01;;;;;;;29.85;20.08;;;;;;;2.30;85.43;101063.42;1793174;79;21239;-84
2023/02/28 11:22:10;;;;;;;30.37;19.95;;;;;;;2.34;85.45;101063.22;1743333;80;21507;-83
2023/02/28 11:25:44;;;;;;;25.50;15.65;;;;;;;2.39;85.93;101065.98;1747945;81;21257;-84
2023/02/28 11:28:49;;;;;;;20.48;14.10;;;;;;;2.43;85.08;101065.30;1751257;80;21208;-84
2023/02/28 11:34:34;;;;;;;18.17;13.50;;;;;;;2.58;84.44;101048.02;1850295;76;28066;-84
2023/02/28 11:37:40;;;;;;;18.45;12.58;;;;;;;2.64;85.40;101059.77;1817185;77;21842;-84
2023/02/28 11:41:05;;;;;;;18.30;13.30;;;;;;;2.71;83.60;101068.30;1817192;78;21174;-85
2023/02/28 11:44:51;;;;;;;19.40;13.58;;;;;;;2.67;84.10;101070.83;1793849;77;21235;-86
2023/02/28 11:48:27;;;;;;;20.10;14.53;;;;;;;2.58;83.34;101080.42;1672251;84;21219;-84
2023/02/28 11:51:42;;;;;;;18.87;12.40;;;;;;;2.51;83.24;101080.00;1688742;83;21282;-86
2023/02/28 11:55:18;;;;;;;16.80;11.95;;;;;;;2.47;83.60;101091.12;1802747;79;21229;-85
2023/02/28 11:58:41;;;;;;;18.35;12.98;;;;;;;2.33;82.98;101069.59;1804196;79;21712;-83
2023/02/28 12:02:16;;;;;;;18.52;12.15;;;;;;;2.18;82.79;101074.22;1787087;79;21200;-84
2023/02/28 12:05:43;;;;;;;17.73;11.73;;;;;;;2.08;82.98;101073.97;1758902;79;21196;-84
2023/02/28 12:09:17;;;;;;;17.55;11.50;;;;;;;2.05;83.58;101068.28;1793353;79;21742;-86
2023/02/28 12:12:52;;;;;;;14.00;10.78;;;;;;;2.03;83.71;101075.62;1802812;79;21738;-83
2023/02/28 12:16:36;;;;;;;15.28;11.00;;;;;;;2.00;84.06;101064.17;1802669;79;22536;-84
2023/02/28 12:19:56;;;;;;;13.53;10.18;;;;;;;2.04;84.04;101062.52;1790095;79;21168;-84
2023/02/28 12:23:20;;;;;;;14.15;10.53;;;;;;;2.01;82.90;101065.41;1800479;79;21188;-84
2023/02/28 12:26:54;;;;;;;13.13;10.10;;;;;;;2.00;82.88;101047.98;1795941;79;21216;-85
2023/02/28 12:30:28;;;;;;;14.75;10.38;;;;;;;2.06;83.02;101040.80;1778605;80;21223;-83
2023/02/28 12:33:42;;;;;;;15.08;10.63;;;;;;;2.10;83.45;101042.33;1790494;79;21780;-84
2023/02/28 12:36:50;;;;;;;14.40;10.63;;;;;;;2.05;82.06;101046.69;1811602;79;21187;-85
2023/02/28 12:39:59;;;;;;;21.77;12.60;;;;;;;1.96;82.05;101049.15;1810008;79;21173;-85
2023/02/28 12:43:05;;;;;;;29.63;16.62;;;;;;;1.92;82.55;101048.97;1817539;79;21227;-84
2023/02/28 12:46:10;;;;;;;18.60;10.88;;;;;;;1.90;82.24;101044.17;1817145;79;21201;-85
2023/02/28 12:49:03;;;;;;;13.85;10.45;;;;;;;1.90;82.55;101041.47;1788374;79;22196;-84
2023/02/28 12:51:56;;;;;;;14.47;10.40;;;;;;;1.93;82.71;101034.05;1797730;79;21192;-84
2023/02/28 12:54:57;;;;;;;14.03;10.15;;;;;;;1.98;83.63;101035.09;1804965;79;21168;-84
2023/02/28 12:58:02;;;;;;;15.53;10.55;;;;;;;2.09;82.64;101032.52;1792317;79;21137;-83
2023/02/28 13:01:07;;;;;;;12.53;9.48;;;;;;;2.19;82.30;101036.80;1801903;79;21744;-85
2023/02/28 13:04:14;;;;;;;17.73;11.75;;;;;;;2.26;82.25;101024.63;1794844;79;21211;-86
2023/02/28 13:07:50;;;;;;;17.85;12.63;;;;;;;2.33;82.57;101029.97;1793583;79;21177;-86
2023/02/28 13:10:57;;;;;;;15.13;11.50;;;;;;;2.34;82.40;101030.83;1789747;79;21142;-84
2023/02/28 13:14:10;;;;;;;16.32;10.93;;;;;;;2.32;82.32;101028.73;1783087;79;21295;-84
2023/02/28 13:17:22;;;;;;;16.45;11.85;;;;;;;2.30;81.40;101028.81;1790834;79;21168;-84
2023/02/28 13:20:31;;;;;;;15.05;10.63;;;;;;;2.26;82.87;101022.79;1794631;79;21248;-84
2023/02/28 13:23:52;;;;;;;15.93;11.28;;;;;;;2.21;81.71;101030.34;1792312;79;21520;-85
2023/02/28 13:27:02;;;;;;;17.02;11.97;;;;;;;2.12;82.34;101020.63;1795611;79;21201;-84
2023/02/28 13:30:08;;;;;;;17.20;12.23;;;;;;;2.07;83.06;101037.16;1783381;80;21181;-85
2023/02/28 13:33:44;;;;;;;16.93;11.65;;;;;;;2.08;83.66;101025.88;1783627;80;21838;-83
2023/02/28 13:36:49;;;;;;;17.60;11.25;;;;;;;2.12;82.60;101025.57;1816118;77;21798;-84
2023/02/28 13:39:56;;;;;;;18.82;11.30;;;;;;;2.07;82.39;101019.63;1810762;79;21172;-89
2023/02/28 13:43:03;;;;;;;29.07;19.57;;;;;;;2.07;82.92;101016.92;1816374;79;21255;-89
2023/02/28 13:46:14;;;;;;;16.77;12.05;;;;;;;2.06;82.83;101019.22;1817332;79;21228;-88
2023/02/28 13:49:34;;;;;;;23.25;14.13;;;;;;;2.04;83.31;101016.63;1795237;79;21196;-89
2023/02/28 13:52:39;;;;;;;18.30;12.95;;;;;;;2.04;83.86;101017.13;1787523;79;21738;-88
2023/02/28 13:55:58;;;;;;;22.15;14.93;;;;;;;2.02;83.33;101013.64;1784920;79;21262;-88
2023/02/28 13:59:33;;;;;;;16.35;11.48;;;;;;;1.97;83.24;101013.09;1792125;79;21355;-88
2023/02/28 14:03:00;;;;;;;17.37;13.03;;;;;;;1.93;83.11;101016.97;1783166;80;21152;-88
2023/02/28 14:06:31;;;;;;;18.20;12.75;;;;;;;1.92;82.99;101012.05;1781995;80;21200;-89
2023/02/28 14:09:45;;;;;;;20.77;12.10;;;;;;;1.91;83.55;101018.43;1778336;80;21538;-88
2023/02/28 14:13:03;;;;;;;19.23;12.70;;;;;;;1.86;82.68;101011.13;1793582;79;21474;-87
2023/02/28 14:16:11;;;;;;;18.60;12.78;;;;;;;1.79;82.71;101012.05;1815640;79;21223;-88
2023/02/28 14:19:37;;;;;;;16.32;11.48;;;;;;;1.75;82.89;101013.70;1814499;79;21161;-88
2023/02/28 14:22:57;;;;;;;18.10;12.70;;;;;;;1.71;82.29;101006.77;1816271;79;21151;-88
2023/02/28 14:26:28;;;;;;;19.70;12.73;;;;;;;1.67;82.19;101010.16;1816671;79;21180;-89
2023/02/28 14:30:15;;;;;;;20.30;13.30;;;;;;;1.67;82.78;101022.29;1817333;79;21157;-88
2023/02/28 14:33:31;;;;;;;18.37;12.50;;;;;;;1.67;83.01;101018.25;1815597;79;21185;-89
2023/02/28 14:36:45;;;;;;;18.30;12.37;;;;;;;1.68;83.22;101014.58;1791753;78;21189;-88
2023/02/28 14:39:50;;;;;;;20.32;14.15;;;;;;;1.61;83.59;101018.66;1776206;81;21220;-89